sensor_id;sensor_type;location;lat;lon;timestamp;P1;durP1;ratioP1;P2;durP2;ratioP2
31660;SDS011;18267;52.234;7.444;2024-01-30T00:01:57;11.40;;;6.97;;
31660;SDS011;18267;52.234;7.444;2024-01-30T00:04:23;13.13;;;7.28;;
31660;SDS011;18267;52.234;7.444;2024-01-30T00:06:48;14.52;;;7.65;;
31660;SDS011;18267;52.234;7.444;2024-01-30T00:09:15;14.18;;;7.68;;
31660;SDS011;18267;52.234;7.444;2024-01-30T00:11:40;12.20;;;7.70;;
31660;SDS011;18267;52.234;7.444;2024-01-30T00:14:06;15.77;;;7.57;;
31660;SDS011;18267;52.234;7.444;2024-01-30T00:16:31;12.00;;;7.38;;
31660;SDS011;18267;52.234;7.444;2024-01-30T00:18:57;13.25;;;7.25;;
31660;SDS011;18267;52.234;7.444;2024-01-30T00:21:23;17.58;;;8.15;;
31660;SDS011;18267;52.234;7.444;2024-01-30T00:23:48;17.45;;;8.35;;
31660;SDS011;18267;52.234;7.444;2024-01-30T00:26:14;12.20;;;6.93;;
31660;SDS011;18267;52.234;7.444;2024-01-30T00:28:40;12.20;;;7.55;;
31660;SDS011;18267;52.234;7.444;2024-01-30T00:31:06;13.65;;;7.18;;
31660;SDS011;18267;52.234;7.444;2024-01-30T00:33:32;12.07;;;7.03;;
31660;SDS011;18267;52.234;7.444;2024-01-30T00:35:58;16.25;;;7.80;;
31660;SDS011;18267;52.234;7.444;2024-01-30T00:38:23;25.80;;;8.40;;
31660;SDS011;18267;52.234;7.444;2024-01-30T00:40:49;17.52;;;8.18;;
31660;SDS011;18267;52.234;7.444;2024-01-30T00:43:15;15.50;;;7.82;;
31660;SDS011;18267;52.234;7.444;2024-01-30T00:45:40;11.65;;;7.32;;
31660;SDS011;18267;52.234;7.444;2024-01-30T00:48:06;12.27;;;7.30;;
31660;SDS011;18267;52.234;7.444;2024-01-30T00:50:32;13.00;;;7.78;;
31660;SDS011;18267;52.234;7.444;2024-01-30T00:52:57;13.07;;;7.25;;
31660;SDS011;18267;52.234;7.444;2024-01-30T00:55:23;14.52;;;7.35;;
31660;SDS011;18267;52.234;7.444;2024-01-30T00:57:48;14.38;;;7.80;;
31660;SDS011;18267;52.234;7.444;2024-01-30T01:00:14;14.07;;;6.80;;
31660;SDS011;18267;52.234;7.444;2024-01-30T01:02:42;12.18;;;7.28;;
31660;SDS011;18267;52.234;7.444;2024-01-30T01:05:08;11.77;;;7.18;;
31660;SDS011;18267;52.234;7.444;2024-01-30T01:07:33;12.60;;;6.85;;
31660;SDS011;18267;52.234;7.444;2024-01-30T01:09:59;13.90;;;8.27;;
31660;SDS011;18267;52.234;7.444;2024-01-30T01:12:25;12.60;;;8.05;;
31660;SDS011;18267;52.234;7.444;2024-01-30T01:14:50;15.02;;;8.07;;
31660;SDS011;18267;52.234;7.444;2024-01-30T01:17:16;13.63;;;7.07;;
31660;SDS011;18267;52.234;7.444;2024-01-30T01:19:41;13.18;;;7.50;;
31660;SDS011;18267;52.234;7.444;2024-01-30T01:22:07;15.85;;;7.80;;
31660;SDS011;18267;52.234;7.444;2024-01-30T01:24:33;15.70;;;8.40;;
31660;SDS011;18267;52.234;7.444;2024-01-30T01:26:59;13.52;;;8.25;;
31660;SDS011;18267;52.234;7.444;2024-01-30T01:29:24;17.05;;;7.82;;
31660;SDS011;18267;52.234;7.444;2024-01-30T01:31:56;18.23;;;8.10;;
31660;SDS011;18267;52.234;7.444;2024-01-30T01:34:22;13.38;;;7.32;;
31660;SDS011;18267;52.234;7.444;2024-01-30T01:36:48;15.30;;;7.43;;
31660;SDS011;18267;52.234;7.444;2024-01-30T01:39:14;20.27;;;8.02;;
31660;SDS011;18267;52.234;7.444;2024-01-30T01:41:40;15.70;;;7.72;;
31660;SDS011;18267;52.234;7.444;2024-01-30T01:44:06;14.45;;;7.55;;
31660;SDS011;18267;52.234;7.444;2024-01-30T01:46:32;12.82;;;7.03;;
31660;SDS011;18267;52.234;7.444;2024-01-30T01:48:58;12.70;;;7.38;;
31660;SDS011;18267;52.234;7.444;2024-01-30T01:51:27;12.52;;;7.10;;
31660;SDS011;18267;52.234;7.444;2024-01-30T01:53:54;13.13;;;7.72;;
31660;SDS011;18267;52.234;7.444;2024-01-30T01:56:21;12.93;;;8.50;;
31660;SDS011;18267;52.234;7.444;2024-01-30T01:58:48;11.88;;;7.72;;
31660;SDS011;18267;52.234;7.444;2024-01-30T02:01:16;15.27;;;7.45;;
31660;SDS011;18267;52.234;7.444;2024-01-30T02:03:45;12.80;;;7.82;;
31660;SDS011;18267;52.234;7.444;2024-01-30T02:06:12;15.15;;;8.27;;
31660;SDS011;18267;52.234;7.444;2024-01-30T02:08:38;14.70;;;8.00;;
31660;SDS011;18267;52.234;7.444;2024-01-30T02:11:04;17.48;;;7.97;;
31660;SDS011;18267;52.234;7.444;2024-01-30T02:13:30;10.82;;;7.22;;
31660;SDS011;18267;52.234;7.444;2024-01-30T02:15:55;19.05;;;8.15;;
31660;SDS011;18267;52.234;7.444;2024-01-30T02:18:22;14.80;;;8.77;;
31660;SDS011;18267;52.234;7.444;2024-01-30T02:20:47;13.07;;;8.13;;
31660;SDS011;18267;52.234;7.444;2024-01-30T02:23:13;16.95;;;7.30;;
31660;SDS011;18267;52.234;7.444;2024-01-30T02:25:42;14.95;;;8.38;;
31660;SDS011;18267;52.234;7.444;2024-01-30T02:28:11;14.32;;;8.20;;
31660;SDS011;18267;52.234;7.444;2024-01-30T02:30:37;11.13;;;7.18;;
31660;SDS011;18267;52.234;7.444;2024-01-30T02:33:03;13.63;;;7.90;;
31660;SDS011;18267;52.234;7.444;2024-01-30T02:35:29;19.00;;;7.63;;
31660;SDS011;18267;52.234;7.444;2024-01-30T02:37:54;13.68;;;8.07;;
31660;SDS011;18267;52.234;7.444;2024-01-30T02:40:20;15.27;;;7.45;;
31660;SDS011;18267;52.234;7.444;2024-01-30T02:42:46;10.32;;;7.03;;
31660;SDS011;18267;52.234;7.444;2024-01-30T02:45:11;12.48;;;7.15;;
31660;SDS011;18267;52.234;7.444;2024-01-30T02:47:38;12.57;;;7.80;;
31660;SDS011;18267;52.234;7.444;2024-01-30T02:50:04;12.50;;;7.68;;
31660;SDS011;18267;52.234;7.444;2024-01-30T02:52:30;12.73;;;7.75;;
31660;SDS011;18267;52.234;7.444;2024-01-30T02:54:56;17.55;;;7.88;;
31660;SDS011;18267;52.234;7.444;2024-01-30T02:57:21;14.68;;;8.15;;
31660;SDS011;18267;52.234;7.444;2024-01-30T02:59:47;15.52;;;7.50;;
31660;SDS011;18267;52.234;7.444;2024-01-30T03:02:12;14.40;;;7.75;;
31660;SDS011;18267;52.234;7.444;2024-01-30T03:04:40;13.52;;;7.32;;
31660;SDS011;18267;52.234;7.444;2024-01-30T03:07:06;12.85;;;7.85;;
31660;SDS011;18267;52.234;7.444;2024-01-30T03:09:32;11.95;;;7.75;;
31660;SDS011;18267;52.234;7.444;2024-01-30T03:11:57;16.35;;;8.25;;
31660;SDS011;18267;52.234;7.444;2024-01-30T03:14:23;16.05;;;8.35;;
31660;SDS011;18267;52.234;7.444;2024-01-30T03:16:48;12.65;;;7.43;;
31660;SDS011;18267;52.234;7.444;2024-01-30T03:19:14;13.25;;;7.40;;
31660;SDS011;18267;52.234;7.444;2024-01-30T03:21:39;16.75;;;8.43;;
31660;SDS011;18267;52.234;7.444;2024-01-30T03:24:05;13.80;;;8.10;;
31660;SDS011;18267;52.234;7.444;2024-01-30T03:26:30;14.65;;;7.70;;
31660;SDS011;18267;52.234;7.444;2024-01-30T03:28:56;11.00;;;7.53;;
31660;SDS011;18267;52.234;7.444;2024-01-30T03:31:21;18.17;;;8.25;;
31660;SDS011;18267;52.234;7.444;2024-01-30T03:33:47;13.18;;;7.72;;
31660;SDS011;18267;52.234;7.444;2024-01-30T03:36:14;16.63;;;7.13;;
31660;SDS011;18267;52.234;7.444;2024-01-30T03:38:40;15.95;;;8.35;;
31660;SDS011;18267;52.234;7.444;2024-01-30T03:41:09;14.10;;;7.65;;
31660;SDS011;18267;52.234;7.444;2024-01-30T03:43:35;11.75;;;7.55;;
31660;SDS011;18267;52.234;7.444;2024-01-30T03:46:01;20.38;;;8.98;;
31660;SDS011;18267;52.234;7.444;2024-01-30T03:48:28;19.02;;;8.40;;
31660;SDS011;18267;52.234;7.444;2024-01-30T03:50:54;12.80;;;8.43;;
31660;SDS011;18267;52.234;7.444;2024-01-30T03:53:19;15.35;;;7.78;;
31660;SDS011;18267;52.234;7.444;2024-01-30T03:55:45;10.95;;;7.20;;
31660;SDS011;18267;52.234;7.444;2024-01-30T03:58:10;18.10;;;7.35;;
31660;SDS011;18267;52.234;7.444;2024-01-30T04:00:36;14.88;;;7.95;;
31660;SDS011;18267;52.234;7.444;2024-01-30T04:03:02;18.73;;;8.27;;
31660;SDS011;18267;52.234;7.444;2024-01-30T04:05:27;10.93;;;7.38;;
31660;SDS011;18267;52.234;7.444;2024-01-30T04:07:53;17.13;;;8.52;;
31660;SDS011;18267;52.234;7.444;2024-01-30T04:10:19;18.23;;;7.68;;
31660;SDS011;18267;52.234;7.444;2024-01-30T04:12:44;23.80;;;8.40;;
31660;SDS011;18267;52.234;7.444;2024-01-30T04:15:10;12.02;;;7.07;;
31660;SDS011;18267;52.234;7.444;2024-01-30T04:17:35;11.15;;;7.13;;
31660;SDS011;18267;52.234;7.444;2024-01-30T04:20:01;15.35;;;8.65;;
31660;SDS011;18267;52.234;7.444;2024-01-30T04:22:27;12.10;;;6.97;;
31660;SDS011;18267;52.234;7.444;2024-01-30T04:24:52;12.90;;;7.80;;
31660;SDS011;18267;52.234;7.444;2024-01-30T04:27:18;12.73;;;6.90;;
31660;SDS011;18267;52.234;7.444;2024-01-30T04:29:43;11.88;;;7.38;;
31660;SDS011;18267;52.234;7.444;2024-01-30T04:32:09;12.85;;;7.43;;
31660;SDS011;18267;52.234;7.444;2024-01-30T04:34:35;12.52;;;8.07;;
31660;SDS011;18267;52.234;7.444;2024-01-30T04:37:01;16.00;;;7.70;;
31660;SDS011;18267;52.234;7.444;2024-01-30T04:39:27;14.38;;;7.88;;
31660;SDS011;18267;52.234;7.444;2024-01-30T04:41:52;12.05;;;7.70;;
31660;SDS011;18267;52.234;7.444;2024-01-30T04:44:18;13.75;;;7.35;;
31660;SDS011;18267;52.234;7.444;2024-01-30T04:46:44;15.30;;;7.88;;
31660;SDS011;18267;52.234;7.444;2024-01-30T04:49:09;14.65;;;8.00;;
31660;SDS011;18267;52.234;7.444;2024-01-30T04:51:35;17.48;;;8.25;;
31660;SDS011;18267;52.234;7.444;2024-01-30T04:54:01;16.13;;;8.80;;
31660;SDS011;18267;52.234;7.444;2024-01-30T04:56:26;18.92;;;8.02;;
31660;SDS011;18267;52.234;7.444;2024-01-30T04:58:52;14.43;;;7.85;;
31660;SDS011;18267;52.234;7.444;2024-01-30T05:01:17;15.75;;;8.00;;
31660;SDS011;18267;52.234;7.444;2024-01-30T05:03:43;14.75;;;8.52;;
31660;SDS011;18267;52.234;7.444;2024-01-30T05:06:08;16.08;;;8.00;;
31660;SDS011;18267;52.234;7.444;2024-01-30T05:08:34;15.25;;;7.82;;
31660;SDS011;18267;52.234;7.444;2024-01-30T05:11:03;12.30;;;7.47;;
31660;SDS011;18267;52.234;7.444;2024-01-30T05:13:33;15.35;;;8.60;;
31660;SDS011;18267;52.234;7.444;2024-01-30T05:15:58;14.63;;;8.07;;
31660;SDS011;18267;52.234;7.444;2024-01-30T05:18:26;19.75;;;7.93;;
31660;SDS011;18267;52.234;7.444;2024-01-30T05:20:52;14.63;;;7.22;;
31660;SDS011;18267;52.234;7.444;2024-01-30T05:23:17;14.63;;;7.97;;
31660;SDS011;18267;52.234;7.444;2024-01-30T05:25:43;14.73;;;8.27;;
31660;SDS011;18267;52.234;7.444;2024-01-30T05:28:08;12.30;;;8.15;;
31660;SDS011;18267;52.234;7.444;2024-01-30T05:30:34;15.80;;;7.65;;
31660;SDS011;18267;52.234;7.444;2024-01-30T05:32:59;16.98;;;7.72;;
31660;SDS011;18267;52.234;7.444;2024-01-30T05:35:25;19.70;;;8.50;;
31660;SDS011;18267;52.234;7.444;2024-01-30T05:37:50;12.38;;;7.90;;
31660;SDS011;18267;52.234;7.444;2024-01-30T05:40:16;14.88;;;8.20;;
31660;SDS011;18267;52.234;7.444;2024-01-30T05:42:42;16.63;;;8.00;;
31660;SDS011;18267;52.234;7.444;2024-01-30T05:45:07;15.00;;;7.85;;
31660;SDS011;18267;52.234;7.444;2024-01-30T05:47:34;16.15;;;8.32;;
31660;SDS011;18267;52.234;7.444;2024-01-30T05:49:59;15.70;;;8.98;;
31660;SDS011;18267;52.234;7.444;2024-01-30T05:52:25;13.85;;;8.60;;
31660;SDS011;18267;52.234;7.444;2024-01-30T05:54:50;16.75;;;8.93;;
31660;SDS011;18267;52.234;7.444;2024-01-30T05:57:16;14.52;;;8.45;;
31660;SDS011;18267;52.234;7.444;2024-01-30T05:59:42;13.70;;;7.63;;
31660;SDS011;18267;52.234;7.444;2024-01-30T06:02:09;13.65;;;8.07;;
31660;SDS011;18267;52.234;7.444;2024-01-30T06:04:35;15.45;;;8.15;;
31660;SDS011;18267;52.234;7.444;2024-01-30T06:07:01;20.42;;;8.07;;
31660;SDS011;18267;52.234;7.444;2024-01-30T06:09:27;13.63;;;8.15;;
31660;SDS011;18267;52.234;7.444;2024-01-30T06:11:53;14.38;;;7.68;;
31660;SDS011;18267;52.234;7.444;2024-01-30T06:14:19;23.05;;;8.93;;
31660;SDS011;18267;52.234;7.444;2024-01-30T06:16:44;15.00;;;8.18;;
31660;SDS011;18267;52.234;7.444;2024-01-30T06:19:10;17.58;;;8.45;;
31660;SDS011;18267;52.234;7.444;2024-01-30T06:21:35;17.02;;;8.50;;
31660;SDS011;18267;52.234;7.444;2024-01-30T06:24:02;13.82;;;7.80;;
31660;SDS011;18267;52.234;7.444;2024-01-30T06:26:27;17.27;;;8.13;;
31660;SDS011;18267;52.234;7.444;2024-01-30T06:28:53;18.02;;;8.60;;
31660;SDS011;18267;52.234;7.444;2024-01-30T06:31:18;14.43;;;7.50;;
31660;SDS011;18267;52.234;7.444;2024-01-30T06:33:46;16.27;;;8.35;;
31660;SDS011;18267;52.234;7.444;2024-01-30T06:36:14;14.02;;;8.02;;
31660;SDS011;18267;52.234;7.444;2024-01-30T06:38:40;16.80;;;6.97;;
31660;SDS011;18267;52.234;7.444;2024-01-30T06:41:06;16.80;;;8.20;;
31660;SDS011;18267;52.234;7.444;2024-01-30T06:43:32;14.65;;;8.60;;
31660;SDS011;18267;52.234;7.444;2024-01-30T06:45:57;13.90;;;8.52;;
31660;SDS011;18267;52.234;7.444;2024-01-30T06:48:24;17.70;;;7.82;;
31660;SDS011;18267;52.234;7.444;2024-01-30T06:50:50;18.25;;;7.30;;
31660;SDS011;18267;52.234;7.444;2024-01-30T06:53:18;15.13;;;8.05;;
31660;SDS011;18267;52.234;7.444;2024-01-30T06:55:44;18.83;;;8.48;;
31660;SDS011;18267;52.234;7.444;2024-01-30T06:58:09;13.85;;;8.00;;
31660;SDS011;18267;52.234;7.444;2024-01-30T07:00:35;13.95;;;8.10;;
31660;SDS011;18267;52.234;7.444;2024-01-30T07:03:01;16.05;;;7.97;;
31660;SDS011;18267;52.234;7.444;2024-01-30T07:05:27;15.93;;;8.10;;
31660;SDS011;18267;52.234;7.444;2024-01-30T07:07:52;17.25;;;7.88;;
31660;SDS011;18267;52.234;7.444;2024-01-30T07:10:18;16.60;;;7.75;;
31660;SDS011;18267;52.234;7.444;2024-01-30T07:12:44;12.63;;;7.53;;
31660;SDS011;18267;52.234;7.444;2024-01-30T07:15:09;14.15;;;8.00;;
31660;SDS011;18267;52.234;7.444;2024-01-30T07:17:35;14.15;;;8.07;;
31660;SDS011;18267;52.234;7.444;2024-01-30T07:20:01;13.90;;;7.63;;
31660;SDS011;18267;52.234;7.444;2024-01-30T07:22:28;18.05;;;8.30;;
31660;SDS011;18267;52.234;7.444;2024-01-30T07:24:55;16.48;;;7.97;;
31660;SDS011;18267;52.234;7.444;2024-01-30T07:27:20;18.73;;;8.35;;
31660;SDS011;18267;52.234;7.444;2024-01-30T07:29:46;13.15;;;7.72;;
31660;SDS011;18267;52.234;7.444;2024-01-30T07:32:12;13.15;;;7.82;;
31660;SDS011;18267;52.234;7.444;2024-01-30T07:34:37;12.68;;;8.10;;
31660;SDS011;18267;52.234;7.444;2024-01-30T07:37:03;14.73;;;8.15;;
31660;SDS011;18267;52.234;7.444;2024-01-30T07:39:28;15.63;;;8.65;;
31660;SDS011;18267;52.234;7.444;2024-01-30T07:41:54;17.35;;;8.52;;
31660;SDS011;18267;52.234;7.444;2024-01-30T07:44:20;16.33;;;8.52;;
31660;SDS011;18267;52.234;7.444;2024-01-30T07:46:45;38.78;;;8.50;;
31660;SDS011;18267;52.234;7.444;2024-01-30T07:49:11;13.88;;;8.35;;
31660;SDS011;18267;52.234;7.444;2024-01-30T07:51:39;17.85;;;8.07;;
31660;SDS011;18267;52.234;7.444;2024-01-30T07:54:04;17.40;;;8.65;;
31660;SDS011;18267;52.234;7.444;2024-01-30T07:56:30;17.70;;;7.70;;
31660;SDS011;18267;52.234;7.444;2024-01-30T07:58:56;10.73;;;6.78;;
31660;SDS011;18267;52.234;7.444;2024-01-30T08:01:21;19.80;;;8.25;;
31660;SDS011;18267;52.234;7.444;2024-01-30T08:03:47;13.27;;;7.97;;
31660;SDS011;18267;52.234;7.444;2024-01-30T08:06:12;17.77;;;8.07;;
31660;SDS011;18267;52.234;7.444;2024-01-30T08:08:38;14.85;;;7.97;;
31660;SDS011;18267;52.234;7.444;2024-01-30T08:11:03;16.27;;;8.55;;
31660;SDS011;18267;52.234;7.444;2024-01-30T08:13:29;15.48;;;7.63;;
31660;SDS011;18267;52.234;7.444;2024-01-30T08:15:54;16.73;;;7.93;;
31660;SDS011;18267;52.234;7.444;2024-01-30T08:18:20;11.77;;;7.15;;
31660;SDS011;18267;52.234;7.444;2024-01-30T08:20:46;12.05;;;7.18;;
31660;SDS011;18267;52.234;7.444;2024-01-30T08:23:11;13.88;;;7.93;;
31660;SDS011;18267;52.234;7.444;2024-01-30T08:25:37;14.68;;;7.20;;
31660;SDS011;18267;52.234;7.444;2024-01-30T08:28:03;13.23;;;7.75;;
31660;SDS011;18267;52.234;7.444;2024-01-30T08:30:29;16.80;;;8.35;;
31660;SDS011;18267;52.234;7.444;2024-01-30T08:32:54;19.95;;;7.57;;
31660;SDS011;18267;52.234;7.444;2024-01-30T08:35:20;16.15;;;7.55;;
31660;SDS011;18267;52.234;7.444;2024-01-30T08:37:45;15.63;;;7.10;;
31660;SDS011;18267;52.234;7.444;2024-01-30T08:40:11;11.85;;;6.93;;
31660;SDS011;18267;52.234;7.444;2024-01-30T08:42:36;19.23;;;7.57;;
31660;SDS011;18267;52.234;7.444;2024-01-30T08:45:02;13.80;;;7.75;;
31660;SDS011;18267;52.234;7.444;2024-01-30T08:47:29;16.63;;;7.53;;
31660;SDS011;18267;52.234;7.444;2024-01-30T08:49:55;20.25;;;7.88;;
31660;SDS011;18267;52.234;7.444;2024-01-30T08:52:21;18.20;;;7.30;;
31660;SDS011;18267;52.234;7.444;2024-01-30T08:54:46;15.48;;;7.05;;
31660;SDS011;18267;52.234;7.444;2024-01-30T08:57:12;14.55;;;6.55;;
31660;SDS011;18267;52.234;7.444;2024-01-30T08:59:37;13.23;;;7.25;;
31660;SDS011;18267;52.234;7.444;2024-01-30T09:02:03;16.48;;;7.55;;
31660;SDS011;18267;52.234;7.444;2024-01-30T09:04:29;18.08;;;7.75;;
31660;SDS011;18267;52.234;7.444;2024-01-30T09:06:54;11.88;;;7.03;;
31660;SDS011;18267;52.234;7.444;2024-01-30T09:09:20;13.13;;;7.32;;
31660;SDS011;18267;52.234;7.444;2024-01-30T09:11:45;18.52;;;7.28;;
31660;SDS011;18267;52.234;7.444;2024-01-30T09:14:11;12.07;;;7.32;;
31660;SDS011;18267;52.234;7.444;2024-01-30T09:16:37;16.25;;;7.75;;
31660;SDS011;18267;52.234;7.444;2024-01-30T09:19:03;17.90;;;7.18;;
31660;SDS011;18267;52.234;7.444;2024-01-30T09:21:28;15.30;;;6.75;;
31660;SDS011;18267;52.234;7.444;2024-01-30T09:23:54;10.55;;;6.93;;
31660;SDS011;18267;52.234;7.444;2024-01-30T09:26:26;18.95;;;7.47;;
31660;SDS011;18267;52.234;7.444;2024-01-30T09:28:51;11.48;;;6.90;;
31660;SDS011;18267;52.234;7.444;2024-01-30T09:31:17;15.60;;;7.75;;
31660;SDS011;18267;52.234;7.444;2024-01-30T09:33:42;9.95;;;6.97;;
31660;SDS011;18267;52.234;7.444;2024-01-30T09:36:09;12.77;;;6.95;;
31660;SDS011;18267;52.234;7.444;2024-01-30T09:38:34;12.77;;;7.68;;
31660;SDS011;18267;52.234;7.444;2024-01-30T09:41:01;15.05;;;7.50;;
31660;SDS011;18267;52.234;7.444;2024-01-30T09:43:33;12.90;;;7.00;;
31660;SDS011;18267;52.234;7.444;2024-01-30T09:46:00;12.18;;;6.55;;
31660;SDS011;18267;52.234;7.444;2024-01-30T09:48:28;8.45;;;6.30;;
31660;SDS011;18267;52.234;7.444;2024-01-30T09:50:55;10.35;;;6.47;;
31660;SDS011;18267;52.234;7.444;2024-01-30T09:53:23;8.70;;;6.25;;
31660;SDS011;18267;52.234;7.444;2024-01-30T09:55:50;13.80;;;7.35;;
31660;SDS011;18267;52.234;7.444;2024-01-30T09:58:16;13.35;;;7.00;;
31660;SDS011;18267;52.234;7.444;2024-01-30T10:00:41;11.52;;;5.72;;
31660;SDS011;18267;52.234;7.444;2024-01-30T10:03:07;16.27;;;6.30;;
31660;SDS011;18267;52.234;7.444;2024-01-30T10:05:34;12.90;;;6.80;;
31660;SDS011;18267;52.234;7.444;2024-01-30T10:08:05;13.30;;;6.32;;
31660;SDS011;18267;52.234;7.444;2024-01-30T10:10:33;10.65;;;6.60;;
31660;SDS011;18267;52.234;7.444;2024-01-30T10:13:00;14.35;;;6.32;;
31660;SDS011;18267;52.234;7.444;2024-01-30T10:15:25;11.18;;;6.13;;
31660;SDS011;18267;52.234;7.444;2024-01-30T10:17:53;10.55;;;5.68;;
31660;SDS011;18267;52.234;7.444;2024-01-30T10:20:18;12.27;;;5.70;;
31660;SDS011;18267;52.234;7.444;2024-01-30T10:22:45;11.68;;;5.78;;
31660;SDS011;18267;52.234;7.444;2024-01-30T10:25:10;9.05;;;5.40;;
31660;SDS011;18267;52.234;7.444;2024-01-30T10:27:36;11.27;;;5.72;;
31660;SDS011;18267;52.234;7.444;2024-01-30T10:30:04;11.80;;;6.15;;
31660;SDS011;18267;52.234;7.444;2024-01-30T10:32:30;8.65;;;5.93;;
31660;SDS011;18267;52.234;7.444;2024-01-30T10:34:56;11.10;;;5.65;;
31660;SDS011;18267;52.234;7.444;2024-01-30T10:37:21;9.32;;;5.20;;
31660;SDS011;18267;52.234;7.444;2024-01-30T10:39:50;8.10;;;5.07;;
31660;SDS011;18267;52.234;7.444;2024-01-30T10:42:18;8.80;;;5.35;;
31660;SDS011;18267;52.234;7.444;2024-01-30T10:44:51;10.55;;;5.20;;
31660;SDS011;18267;52.234;7.444;2024-01-30T10:47:28;12.18;;;5.70;;
31660;SDS011;18267;52.234;7.444;2024-01-30T10:49:54;10.65;;;4.95;;
31660;SDS011;18267;52.234;7.444;2024-01-30T10:52:21;10.90;;;5.45;;
31660;SDS011;18267;52.234;7.444;2024-01-30T10:54:54;8.40;;;5.18;;
31660;SDS011;18267;52.234;7.444;2024-01-30T10:57:22;14.27;;;5.00;;
31660;SDS011;18267;52.234;7.444;2024-01-30T10:59:49;9.98;;;5.82;;
31660;SDS011;18267;52.234;7.444;2024-01-30T11:02:16;8.70;;;5.60;;
31660;SDS011;18267;52.234;7.444;2024-01-30T11:04:42;22.65;;;5.75;;
31660;SDS011;18267;52.234;7.444;2024-01-30T11:07:14;10.13;;;5.65;;
31660;SDS011;18267;52.234;7.444;2024-01-30T11:09:41;13.48;;;6.00;;
31660;SDS011;18267;52.234;7.444;2024-01-30T11:12:13;11.88;;;4.85;;
31660;SDS011;18267;52.234;7.444;2024-01-30T11:14:39;14.93;;;5.53;;
31660;SDS011;18267;52.234;7.444;2024-01-30T11:17:05;16.38;;;6.00;;
31660;SDS011;18267;52.234;7.444;2024-01-30T11:19:31;15.10;;;5.88;;
31660;SDS011;18267;52.234;7.444;2024-01-30T11:21:59;11.02;;;6.13;;
31660;SDS011;18267;52.234;7.444;2024-01-30T11:24:25;14.02;;;5.40;;
31660;SDS011;18267;52.234;7.444;2024-01-30T11:26:57;11.50;;;5.32;;
31660;SDS011;18267;52.234;7.444;2024-01-30T11:29:27;14.32;;;5.72;;
31660;SDS011;18267;52.234;7.444;2024-01-30T11:31:54;13.65;;;6.10;;
31660;SDS011;18267;52.234;7.444;2024-01-30T11:34:20;9.43;;;6.05;;
31660;SDS011;18267;52.234;7.444;2024-01-30T11:36:54;11.88;;;5.85;;
31660;SDS011;18267;52.234;7.444;2024-01-30T11:39:24;12.25;;;5.88;;
31660;SDS011;18267;52.234;7.444;2024-01-30T11:41:51;9.38;;;6.10;;
31660;SDS011;18267;52.234;7.444;2024-01-30T11:44:18;9.73;;;4.97;;
31660;SDS011;18267;52.234;7.444;2024-01-30T11:46:45;19.65;;;6.10;;
31660;SDS011;18267;52.234;7.444;2024-01-30T11:49:12;13.30;;;5.75;;
31660;SDS011;18267;52.234;7.444;2024-01-30T11:51:37;10.82;;;5.85;;
31660;SDS011;18267;52.234;7.444;2024-01-30T11:54:03;12.95;;;6.00;;
31660;SDS011;18267;52.234;7.444;2024-01-30T11:56:29;12.18;;;6.50;;
31660;SDS011;18267;52.234;7.444;2024-01-30T11:58:54;17.48;;;5.65;;
31660;SDS011;18267;52.234;7.444;2024-01-30T12:01:20;12.18;;;5.57;;
31660;SDS011;18267;52.234;7.444;2024-01-30T12:03:49;13.07;;;6.43;;
31660;SDS011;18267;52.234;7.444;2024-01-30T12:06:15;11.63;;;5.25;;
31660;SDS011;18267;52.234;7.444;2024-01-30T12:08:41;11.18;;;6.15;;
31660;SDS011;18267;52.234;7.444;2024-01-30T12:11:07;9.98;;;5.57;;
31660;SDS011;18267;52.234;7.444;2024-01-30T12:13:33;13.85;;;6.20;;
31660;SDS011;18267;52.234;7.444;2024-01-30T12:16:00;9.07;;;5.55;;
31660;SDS011;18267;52.234;7.444;2024-01-30T12:18:26;9.85;;;5.75;;
31660;SDS011;18267;52.234;7.444;2024-01-30T12:21:00;12.52;;;6.22;;
31660;SDS011;18267;52.234;7.444;2024-01-30T12:23:29;14.40;;;6.47;;
31660;SDS011;18267;52.234;7.444;2024-01-30T12:25:55;9.93;;;5.78;;
31660;SDS011;18267;52.234;7.444;2024-01-30T12:28:21;15.73;;;6.00;;
31660;SDS011;18267;52.234;7.444;2024-01-30T12:30:46;13.40;;;6.35;;
31660;SDS011;18267;52.234;7.444;2024-01-30T12:33:18;15.80;;;6.88;;
31660;SDS011;18267;52.234;7.444;2024-01-30T12:35:47;11.70;;;6.22;;
31660;SDS011;18267;52.234;7.444;2024-01-30T12:38:13;10.27;;;6.30;;
31660;SDS011;18267;52.234;7.444;2024-01-30T12:40:39;10.75;;;6.32;;
31660;SDS011;18267;52.234;7.444;2024-01-30T12:43:05;12.35;;;6.15;;
31660;SDS011;18267;52.234;7.444;2024-01-30T12:45:31;11.90;;;6.18;;
31660;SDS011;18267;52.234;7.444;2024-01-30T12:47:56;12.95;;;6.15;;
31660;SDS011;18267;52.234;7.444;2024-01-30T12:50:23;11.70;;;6.13;;
31660;SDS011;18267;52.234;7.444;2024-01-30T12:52:49;7.55;;;5.53;;
31660;SDS011;18267;52.234;7.444;2024-01-30T12:55:15;11.40;;;5.20;;
31660;SDS011;18267;52.234;7.444;2024-01-30T12:57:41;12.90;;;6.05;;
31660;SDS011;18267;52.234;7.444;2024-01-30T13:00:08;11.38;;;6.35;;
31660;SDS011;18267;52.234;7.444;2024-01-30T13:02:34;15.40;;;6.35;;
31660;SDS011;18267;52.234;7.444;2024-01-30T13:05:04;11.35;;;5.63;;
31660;SDS011;18267;52.234;7.444;2024-01-30T13:07:30;20.80;;;7.28;;
31660;SDS011;18267;52.234;7.444;2024-01-30T13:09:56;11.13;;;5.82;;
31660;SDS011;18267;52.234;7.444;2024-01-30T13:12:27;12.45;;;5.50;;
31660;SDS011;18267;52.234;7.444;2024-01-30T13:14:53;13.70;;;5.88;;
31660;SDS011;18267;52.234;7.444;2024-01-30T13:17:19;11.45;;;5.95;;
31660;SDS011;18267;52.234;7.444;2024-01-30T13:19:45;10.05;;;5.45;;
31660;SDS011;18267;52.234;7.444;2024-01-30T13:22:10;11.88;;;5.65;;
31660;SDS011;18267;52.234;7.444;2024-01-30T13:24:36;17.90;;;5.65;;
31660;SDS011;18267;52.234;7.444;2024-01-30T13:27:02;16.98;;;6.32;;
31660;SDS011;18267;52.234;7.444;2024-01-30T13:29:30;10.07;;;5.40;;
31660;SDS011;18267;52.234;7.444;2024-01-30T13:31:56;9.43;;;5.60;;
31660;SDS011;18267;52.234;7.444;2024-01-30T13:34:21;8.45;;;5.20;;
31660;SDS011;18267;52.234;7.444;2024-01-30T13:36:47;10.23;;;4.72;;
31660;SDS011;18267;52.234;7.444;2024-01-30T13:39:14;10.48;;;5.07;;
31660;SDS011;18267;52.234;7.444;2024-01-30T13:41:41;13.32;;;5.07;;
31660;SDS011;18267;52.234;7.444;2024-01-30T13:44:07;9.20;;;5.22;;
31660;SDS011;18267;52.234;7.444;2024-01-30T13:46:34;9.35;;;4.70;;
31660;SDS011;18267;52.234;7.444;2024-01-30T13:49:01;7.78;;;5.13;;
31660;SDS011;18267;52.234;7.444;2024-01-30T13:51:27;12.15;;;5.43;;
31660;SDS011;18267;52.234;7.444;2024-01-30T13:53:53;10.52;;;5.72;;
31660;SDS011;18267;52.234;7.444;2024-01-30T13:56:19;9.05;;;5.88;;
31660;SDS011;18267;52.234;7.444;2024-01-30T13:58:47;9.38;;;5.38;;
31660;SDS011;18267;52.234;7.444;2024-01-30T14:01:15;13.57;;;5.03;;
31660;SDS011;18267;52.234;7.444;2024-01-30T14:03:41;13.73;;;5.60;;
31660;SDS011;18267;52.234;7.444;2024-01-30T14:06:07;18.55;;;5.25;;
31660;SDS011;18267;52.234;7.444;2024-01-30T14:08:33;16.05;;;5.63;;
31660;SDS011;18267;52.234;7.444;2024-01-30T14:10:59;13.20;;;5.53;;
31660;SDS011;18267;52.234;7.444;2024-01-30T14:13:24;8.63;;;5.60;;
31660;SDS011;18267;52.234;7.444;2024-01-30T14:15:53;8.52;;;5.50;;
31660;SDS011;18267;52.234;7.444;2024-01-30T14:18:19;9.27;;;5.70;;
31660;SDS011;18267;52.234;7.444;2024-01-30T14:20:46;10.45;;;4.95;;
31660;SDS011;18267;52.234;7.444;2024-01-30T14:23:11;10.90;;;5.80;;
31660;SDS011;18267;52.234;7.444;2024-01-30T14:25:37;11.98;;;5.38;;
31660;SDS011;18267;52.234;7.444;2024-01-30T14:28:03;8.30;;;5.55;;
31660;SDS011;18267;52.234;7.444;2024-01-30T14:30:28;12.35;;;6.53;;